createdAt,value
2019-01-13T00:01:02.968Z,21.77
2019-01-13T00:02:07.735Z,22.10
2019-01-13T00:03:12.520Z,28.25
2019-01-13T00:04:17.341Z,18.60
2019-01-13T00:05:22.559Z,21.70
2019-01-13T00:06:27.327Z,23.57
2019-01-13T00:07:32.516Z,23.10
2019-01-13T00:08:37.375Z,21.10
2019-01-13T00:09:41.895Z,21.82
2019-01-13T00:10:46.405Z,19.92
2019-01-13T00:11:51.198Z,23.65
2019-01-13T00:12:56.325Z,22.15
2019-01-13T00:14:01.566Z,23.90
2019-01-13T00:15:07.129Z,23.40
2019-01-13T00:16:12.550Z,21.55
2019-01-13T00:17:17.312Z,24.60
2019-01-13T00:18:22.131Z,26.12
2019-01-13T00:19:26.908Z,23.90
2019-01-13T00:20:31.724Z,24.10
2019-01-13T00:21:36.591Z,24.92
2019-01-13T00:22:41.368Z,22.90
2019-01-13T00:23:47.002Z,22.65
2019-01-13T00:24:51.804Z,26.33
2019-01-13T00:25:56.311Z,23.73
2019-01-13T00:27:01.530Z,24.27
2019-01-13T00:28:06.655Z,23.20
2019-01-13T00:29:11.473Z,25.02
2019-01-13T00:30:19.463Z,22.22
2019-01-13T00:31:22.565Z,21.80
2019-01-13T00:32:27.709Z,25.75
2019-01-13T00:33:32.851Z,25.00
2019-01-13T00:34:38.002Z,27.48
2019-01-13T00:35:42.761Z,27.15
2019-01-13T00:36:47.779Z,23.30
2019-01-13T00:37:52.261Z,25.70
2019-01-13T00:38:57.027Z,25.10
2019-01-13T00:40:01.857Z,27.90
2019-01-13T00:41:07.415Z,23.52
2019-01-13T00:42:12.527Z,22.45
2019-01-13T00:43:17.335Z,25.80
2019-01-13T00:44:22.547Z,30.08
2019-01-13T00:45:28.046Z,23.20
2019-01-13T00:46:33.202Z,24.45
2019-01-13T00:47:37.984Z,25.75
2019-01-13T00:48:42.752Z,25.62
2019-01-13T00:49:47.231Z,24.57
2019-01-13T00:50:52.355Z,31.68
2019-01-13T00:51:57.446Z,28.15
2019-01-13T00:53:02.354Z,26.10
2019-01-13T00:54:07.550Z,24.72
2019-01-13T00:55:13.026Z,26.23
2019-01-13T00:56:18.124Z,26.10
2019-01-13T00:57:22.615Z,27.48
2019-01-13T00:58:27.820Z,23.70
2019-01-13T00:59:32.587Z,22.17
2019-01-13T01:00:38.510Z,21.65
2019-01-13T01:01:43.136Z,24.18
2019-01-13T01:02:48.056Z,25.27
2019-01-13T01:03:53.179Z,26.97
2019-01-13T01:04:58.321Z,28.38
2019-01-13T01:06:04.126Z,22.90
2019-01-13T01:07:08.902Z,31.35
2019-01-13T01:08:13.982Z,27.27
2019-01-13T01:09:19.151Z,30.17
2019-01-13T01:10:23.753Z,25.88
2019-01-13T01:11:29.322Z,33.85
2019-01-13T01:12:34.182Z,29.82
2019-01-13T01:13:38.909Z,38.05
2019-01-13T01:14:43.722Z,34.63
2019-01-13T01:15:48.461Z,32.65
2019-01-13T01:16:53.559Z,43.45
2019-01-13T01:17:58.325Z,36.25
2019-01-13T01:19:04.707Z,34.18
2019-01-13T01:20:11.249Z,41.33
2019-01-13T01:21:16.688Z,41.58
2019-01-13T01:22:21.498Z,39.08
2019-01-13T01:23:26.611Z,38.95
2019-01-13T01:24:31.464Z,40.85
2019-01-13T01:25:36.621Z,38.80
2019-01-13T01:26:41.760Z,36.55
2019-01-13T01:27:46.525Z,34.25
2019-01-13T01:28:51.728Z,35.38
2019-01-13T01:29:56.866Z,33.23
2019-01-13T01:31:02.162Z,34.92
2019-01-13T01:32:07.678Z,30.82
2019-01-13T01:33:13.222Z,28.52
2019-01-13T01:34:18.052Z,30.70
2019-01-13T01:35:22.816Z,29.80
2019-01-13T01:36:28.099Z,25.08
2019-01-13T01:37:33.156Z,26.65
2019-01-13T01:38:38.282Z,24.98
2019-01-13T01:39:43.047Z,25.75
2019-01-13T01:40:47.858Z,24.02
2019-01-13T01:41:52.640Z,21.80
2019-01-13T01:42:57.417Z,22.17
2019-01-13T01:44:02.560Z,22.30
2019-01-13T01:45:09.424Z,25.55
2019-01-13T01:46:14.222Z,21.77
2019-01-13T01:47:19.208Z,22.00
2019-01-13T01:48:24.108Z,23.10
2019-01-13T01:49:28.900Z,24.60
2019-01-13T01:50:33.654Z,22.22
2019-01-13T01:51:38.781Z,23.65
2019-01-13T01:52:43.598Z,24.23
2019-01-13T01:53:48.700Z,24.65
2019-01-13T01:54:54.352Z,21.25
2019-01-13T01:55:59.133Z,19.92
2019-01-13T01:57:03.638Z,23.80
2019-01-13T01:58:08.410Z,24.18
2019-01-13T01:59:13.184Z,23.38
2019-01-13T02:00:23.444Z,24.82
2019-01-13T02:01:28.285Z,23.10
2019-01-13T02:02:33.088Z,29.87
2019-01-13T02:03:38.701Z,21.68
2019-01-13T02:04:43.747Z,20.65
2019-01-13T02:05:48.824Z,22.10
2019-01-13T02:06:53.928Z,23.10
2019-01-13T02:07:58.772Z,21.45
2019-01-13T02:09:05.202Z,22.25
2019-01-13T02:10:13.118Z,22.70
2019-01-13T02:11:18.314Z,21.62
2019-01-13T02:12:23.839Z,20.75
2019-01-13T02:13:29.447Z,21.27
2019-01-13T02:14:34.902Z,21.48
2019-01-13T02:15:40.460Z,24.10
2019-01-13T02:16:45.535Z,26.07
2019-01-13T02:17:50.026Z,23.02
2019-01-13T02:18:54.542Z,21.50
2019-01-13T02:19:59.602Z,24.27
2019-01-13T02:21:04.361Z,21.10
2019-01-13T02:22:09.125Z,25.62
2019-01-13T02:23:14.304Z,23.80
2019-01-13T02:24:19.524Z,26.48
2019-01-13T02:25:26.640Z,20.30
2019-01-13T02:26:31.813Z,22.02
2019-01-13T02:27:36.622Z,26.27
2019-01-13T02:28:41.105Z,22.07
2019-01-13T02:29:46.843Z,21.17
2019-01-13T02:30:52.045Z,25.62
2019-01-13T02:31:56.551Z,22.82
2019-01-13T02:33:01.655Z,23.12
2019-01-13T02:34:07.184Z,25.30
2019-01-13T02:35:12.360Z,24.55
2019-01-13T02:36:17.119Z,24.00
2019-01-13T02:37:21.918Z,23.95
2019-01-13T02:38:27.525Z,23.45
2019-01-13T02:39:32.413Z,23.65
2019-01-13T02:40:37.108Z,24.63
2019-01-13T02:41:41.883Z,25.27
2019-01-13T02:42:46.652Z,22.32
2019-01-13T02:43:51.719Z,20.92
2019-01-13T02:44:56.239Z,23.35
2019-01-13T02:46:01.027Z,22.02
2019-01-13T02:47:06.129Z,22.35
2019-01-13T02:48:11.920Z,21.33
2019-01-13T02:49:16.977Z,23.15
2019-01-13T02:50:22.070Z,21.02
2019-01-13T02:51:28.314Z,21.90
2019-01-13T02:52:33.541Z,24.37
2019-01-13T02:53:39.098Z,23.18
2019-01-13T02:54:44.008Z,23.80
2019-01-13T02:55:49.231Z,23.67
2019-01-13T02:56:54.380Z,23.27
2019-01-13T02:57:59.415Z,22.58
2019-01-13T02:59:04.604Z,21.02
2019-01-13T03:00:13.230Z,22.27
2019-01-13T03:01:18.786Z,24.63
2019-01-13T03:02:23.903Z,24.05
2019-01-13T03:03:29.154Z,23.45
2019-01-13T03:04:34.734Z,20.55
2019-01-13T03:05:41.797Z,23.02
2019-01-13T03:06:46.964Z,21.55
2019-01-13T03:07:52.019Z,23.73
2019-01-13T03:08:56.889Z,19.75
2019-01-13T03:10:02.018Z,22.17
2019-01-13T03:11:06.781Z,21.87
2019-01-13T03:12:11.315Z,18.55
2019-01-13T03:13:16.065Z,18.82
2019-01-13T03:14:20.850Z,19.82
2019-01-13T03:15:28.114Z,19.98
2019-01-13T03:16:32.603Z,18.42
2019-01-13T03:17:37.439Z,20.62
2019-01-13T03:18:42.961Z,21.80
2019-01-13T03:19:48.031Z,18.23
2019-01-13T03:20:53.081Z,18.42
2019-01-13T03:21:58.214Z,17.00
2019-01-13T03:23:02.987Z,14.65
2019-01-13T03:24:08.073Z,16.30
2019-01-13T03:25:14.971Z,16.07
2019-01-13T03:26:20.177Z,14.78
2019-01-13T03:27:25.277Z,17.20
2019-01-13T03:28:30.455Z,15.53
2019-01-13T03:29:35.644Z,14.87
2019-01-13T03:30:40.354Z,14.60
2019-01-13T03:31:45.114Z,13.62
2019-01-13T03:32:50.253Z,13.68
2019-01-13T03:33:55.089Z,15.20
2019-01-13T03:35:00.239Z,14.25
2019-01-13T03:36:05.501Z,13.05
2019-01-13T03:37:09.981Z,12.80
2019-01-13T03:38:14.779Z,12.45
2019-01-13T03:39:19.636Z,14.28
2019-01-13T03:40:25.819Z,13.15
2019-01-13T03:41:30.608Z,12.37
2019-01-13T03:42:36.104Z,12.73
2019-01-13T03:43:40.910Z,13.03
2019-01-13T03:44:46.207Z,11.80
2019-01-13T03:45:50.996Z,11.35
2019-01-13T03:46:55.847Z,12.68
2019-01-13T03:48:01.052Z,11.53
2019-01-13T03:49:05.822Z,11.73
2019-01-13T03:50:13.152Z,14.40
2019-01-13T03:51:18.250Z,12.30
2019-01-13T03:52:23.932Z,12.95
2019-01-13T03:53:28.783Z,11.48
2019-01-13T03:54:34.333Z,12.15
2019-01-13T03:55:39.000Z,11.55
2019-01-13T03:56:43.768Z,12.90
2019-01-13T03:57:49.222Z,12.80
2019-01-13T03:58:54.321Z,11.85
2019-01-13T03:59:59.086Z,10.72
2019-01-13T04:01:04.226Z,10.60
2019-01-13T04:02:09.462Z,12.15
2019-01-13T04:03:14.881Z,11.05
2019-01-13T04:04:20.023Z,12.07
2019-01-13T04:05:25.168Z,11.83
2019-01-13T04:06:30.464Z,10.70
2019-01-13T04:07:35.585Z,10.98
2019-01-13T04:08:40.684Z,11.65
2019-01-13T04:09:45.574Z,10.60
2019-01-13T04:10:50.059Z,10.95
2019-01-13T04:11:55.171Z,11.25
2019-01-13T04:13:00.252Z,11.10
2019-01-13T04:14:05.384Z,13.83
2019-01-13T04:15:44.931Z,10.18
2019-01-13T04:16:49.712Z,10.53
2019-01-13T04:17:55.214Z,12.90
2019-01-13T04:19:00.771Z,12.15
2019-01-13T04:20:06.047Z,11.15
2019-01-13T04:21:10.569Z,11.65
2019-01-13T04:22:16.160Z,14.13
2019-01-13T04:23:21.604Z,11.00
2019-01-13T04:24:26.706Z,10.45
2019-01-13T04:25:31.795Z,10.78
2019-01-13T04:26:37.647Z,11.55
2019-01-13T04:27:42.446Z,11.57
2019-01-13T04:28:46.939Z,11.18
2019-01-13T04:29:52.109Z,13.48
2019-01-13T04:30:57.709Z,11.48
2019-01-13T04:32:03.560Z,12.03
2019-01-13T04:33:08.081Z,12.90
2019-01-13T04:34:13.167Z,11.05
2019-01-13T04:35:18.329Z,11.05
2019-01-13T04:36:23.102Z,11.20
2019-01-13T04:37:27.879Z,11.93
2019-01-13T04:38:32.796Z,12.13
2019-01-13T04:39:39.633Z,12.85
2019-01-13T04:40:45.012Z,11.85
2019-01-13T04:41:50.189Z,11.43
2019-01-13T04:42:55.289Z,12.78
2019-01-13T04:44:00.397Z,11.63
2019-01-13T04:45:05.589Z,13.10
2019-01-13T04:46:10.778Z,12.47
2019-01-13T04:47:16.334Z,12.20
2019-01-13T04:48:21.896Z,12.00
2019-01-13T04:49:27.035Z,12.23
2019-01-13T04:50:32.662Z,12.20
2019-01-13T04:51:40.704Z,12.07
2019-01-13T04:52:45.467Z,12.53
2019-01-13T04:53:51.122Z,12.07
2019-01-13T04:54:56.047Z,13.25
2019-01-13T04:56:00.546Z,11.22
2019-01-13T04:57:05.445Z,12.07
2019-01-13T04:58:10.239Z,11.43
2019-01-13T04:59:15.580Z,12.47
2019-01-13T05:00:20.821Z,12.35
2019-01-13T05:01:25.594Z,11.93
2019-01-13T05:02:30.342Z,12.23
2019-01-13T05:03:35.887Z,11.83
2019-01-13T05:04:41.403Z,11.73
2019-01-13T05:05:46.915Z,12.00
2019-01-13T05:06:52.042Z,12.53
2019-01-13T05:07:56.815Z,12.47
2019-01-13T05:09:02.514Z,12.05
2019-01-13T05:10:09.366Z,12.55
2019-01-13T05:11:14.844Z,11.78
2019-01-13T05:12:20.257Z,13.25
2019-01-13T05:13:25.354Z,12.73
2019-01-13T05:14:30.858Z,12.98
2019-01-13T05:15:35.737Z,12.75
2019-01-13T05:16:40.854Z,13.62
2019-01-13T05:17:45.999Z,14.30
2019-01-13T05:18:50.750Z,13.22
2019-01-13T05:19:55.870Z,13.83
2019-01-13T05:21:00.693Z,13.78
2019-01-13T05:22:05.798Z,13.75
2019-01-13T05:23:10.911Z,13.93
2019-01-13T05:24:15.751Z,13.43
2019-01-13T05:25:20.270Z,14.10
2019-01-13T05:26:25.113Z,14.78
2019-01-13T05:27:29.982Z,12.93
2019-01-13T05:28:35.426Z,13.32
2019-01-13T05:29:40.538Z,13.18
2019-01-13T05:30:46.011Z,13.40
2019-01-13T05:31:51.105Z,14.20
2019-01-13T05:32:56.579Z,14.07
2019-01-13T05:34:01.323Z,12.37
2019-01-13T05:35:06.122Z,12.88
2019-01-13T05:36:11.712Z,13.68
2019-01-13T05:37:16.864Z,12.15
2019-01-13T05:38:21.393Z,13.03
2019-01-13T05:39:26.895Z,11.63
2019-01-13T05:40:31.391Z,13.08
2019-01-13T05:41:36.482Z,12.33
2019-01-13T05:42:41.366Z,14.47
2019-01-13T05:43:46.709Z,13.10
2019-01-13T05:44:51.780Z,13.53
2019-01-13T05:45:57.627Z,11.88
2019-01-13T05:47:02.953Z,12.75
2019-01-13T05:48:07.720Z,13.70
2019-01-13T05:49:12.471Z,12.58
2019-01-13T05:50:18.637Z,12.47
2019-01-13T05:51:24.633Z,12.50
2019-01-13T05:52:29.430Z,11.22
2019-01-13T05:53:33.953Z,11.75
2019-01-13T05:54:39.062Z,13.08
2019-01-13T05:55:44.315Z,12.53
2019-01-13T05:56:49.870Z,13.80
2019-01-13T05:57:54.707Z,15.13
2019-01-13T05:59:00.621Z,12.58
2019-01-13T06:00:06.075Z,11.68
2019-01-13T06:01:11.430Z,12.68
2019-01-13T06:02:16.550Z,13.45
2019-01-13T06:03:21.669Z,13.28
2019-01-13T06:04:26.789Z,12.88
2019-01-13T06:05:31.574Z,12.80
2019-01-13T06:06:36.944Z,12.88
2019-01-13T06:07:41.723Z,13.45
2019-01-13T06:08:47.301Z,15.48
2019-01-13T06:09:51.786Z,13.98
2019-01-13T06:10:56.926Z,13.25
2019-01-13T06:12:02.564Z,15.40
2019-01-13T06:13:07.666Z,13.62
2019-01-13T06:14:12.486Z,14.05
2019-01-13T06:15:19.324Z,14.23
2019-01-13T06:16:24.480Z,13.68
2019-01-13T06:17:30.342Z,14.35
2019-01-13T06:18:35.136Z,15.85
2019-01-13T06:19:39.732Z,12.90
2019-01-13T06:20:44.882Z,13.68
2019-01-13T06:21:49.638Z,13.25
2019-01-13T06:22:54.724Z,13.58
2019-01-13T06:23:59.489Z,14.05
2019-01-13T06:25:04.262Z,12.50
2019-01-13T06:26:09.425Z,13.32
2019-01-13T06:27:14.613Z,14.15
2019-01-13T06:28:20.109Z,13.43
2019-01-13T06:29:25.274Z,14.90
2019-01-13T06:30:30.456Z,14.25
2019-01-13T06:31:35.602Z,14.23
2019-01-13T06:32:40.492Z,15.25
2019-01-13T06:33:45.260Z,15.05
2019-01-13T06:34:50.478Z,14.07
2019-01-13T06:35:55.639Z,14.13
2019-01-13T06:37:00.730Z,12.65
2019-01-13T06:38:06.326Z,15.32
2019-01-13T06:39:11.806Z,15.70
2019-01-13T06:40:18.203Z,14.45
2019-01-13T06:41:22.693Z,13.88
2019-01-13T06:42:29.053Z,14.73
2019-01-13T06:43:33.836Z,13.93
2019-01-13T06:44:38.977Z,15.63
2019-01-13T06:45:43.793Z,13.80
2019-01-13T06:46:49.288Z,14.18
2019-01-13T06:47:54.119Z,17.12
2019-01-13T06:49:00.279Z,12.33
2019-01-13T06:50:05.625Z,14.58
2019-01-13T06:51:10.405Z,14.83
2019-01-13T06:52:15.608Z,15.00
2019-01-13T06:53:20.080Z,14.07
2019-01-13T06:54:24.916Z,13.15
2019-01-13T06:55:30.219Z,12.00
2019-01-13T06:56:35.745Z,13.50
2019-01-13T06:57:40.967Z,15.65
2019-01-13T06:58:46.026Z,11.88
2019-01-13T06:59:50.505Z,12.18
2019-01-13T07:00:55.302Z,11.88
2019-01-13T07:02:03.526Z,12.40
2019-01-13T07:03:06.578Z,10.98
2019-01-13T07:04:11.693Z,11.08
2019-01-13T07:05:17.193Z,10.20
2019-01-13T07:06:22.381Z,9.95
2019-01-13T07:07:27.517Z,10.08
2019-01-13T07:08:32.266Z,10.32
2019-01-13T07:09:37.551Z,10.10
2019-01-13T07:10:42.378Z,8.98
2019-01-13T07:11:47.215Z,9.25
2019-01-13T07:12:52.839Z,9.78
2019-01-13T07:13:57.428Z,10.75
2019-01-13T07:15:02.603Z,9.00
2019-01-13T07:16:07.345Z,8.15
2019-01-13T07:17:11.973Z,7.40
2019-01-13T07:18:17.449Z,7.35
2019-01-13T07:19:22.259Z,6.22
2019-01-13T07:20:27.004Z,7.72
2019-01-13T07:21:31.760Z,7.95
2019-01-13T07:22:37.292Z,7.45
2019-01-13T07:23:42.462Z,6.78
2019-01-13T07:24:47.939Z,5.87
2019-01-13T07:25:52.726Z,6.08
2019-01-13T07:26:57.198Z,6.37
2019-01-13T07:28:01.701Z,6.70
2019-01-13T07:29:06.187Z,6.33
2019-01-13T07:30:17.589Z,6.92
2019-01-13T07:31:22.787Z,5.33
2019-01-13T07:32:28.100Z,6.10
2019-01-13T07:33:33.165Z,6.12
2019-01-13T07:34:37.949Z,6.03
2019-01-13T07:35:42.438Z,5.47
2019-01-13T07:36:47.206Z,6.00
2019-01-13T07:37:51.988Z,5.62
2019-01-13T07:38:56.938Z,5.17
2019-01-13T07:40:01.465Z,6.95
2019-01-13T07:41:06.371Z,6.90
2019-01-13T07:42:10.840Z,5.62
2019-01-13T07:43:16.293Z,6.67
2019-01-13T07:44:21.408Z,5.87
2019-01-13T07:45:27.754Z,6.12
2019-01-13T07:46:32.853Z,6.17
2019-01-13T07:47:37.934Z,6.90
2019-01-13T07:48:42.695Z,6.40
2019-01-13T07:49:47.447Z,5.58
2019-01-13T07:50:51.954Z,6.95
2019-01-13T07:51:57.034Z,6.58
2019-01-13T07:53:01.822Z,6.62
2019-01-13T07:54:06.690Z,6.78
2019-01-13T07:55:14.118Z,6.67
2019-01-13T07:56:19.195Z,7.75
2019-01-13T07:57:24.321Z,8.68
2019-01-13T07:58:30.168Z,6.25
2019-01-13T07:59:35.273Z,7.42
2019-01-13T08:00:40.126Z,6.92
2019-01-13T08:01:44.863Z,6.58
2019-01-13T08:02:49.648Z,6.40
2019-01-13T08:03:54.128Z,6.05
2019-01-13T08:04:58.622Z,6.28
2019-01-13T08:06:03.703Z,6.60
2019-01-13T08:07:08.630Z,8.45
2019-01-13T08:08:13.823Z,6.87
2019-01-13T08:09:19.236Z,6.35
2019-01-13T08:10:24.396Z,7.45
2019-01-13T08:11:29.754Z,5.90
2019-01-13T08:12:34.556Z,6.28
2019-01-13T08:13:41.573Z,7.00
2019-01-13T08:14:46.839Z,6.28
2019-01-13T08:15:52.049Z,6.62
2019-01-13T08:16:57.124Z,7.10
2019-01-13T08:18:02.158Z,6.05
2019-01-13T08:19:06.650Z,6.58
2019-01-13T08:20:14.649Z,6.47
2019-01-13T08:21:19.755Z,7.05
2019-01-13T08:22:25.245Z,7.20
2019-01-13T08:23:30.293Z,6.50
2019-01-13T08:24:35.513Z,6.45
2019-01-13T08:25:40.631Z,7.03
2019-01-13T08:26:45.710Z,6.25
2019-01-13T08:27:50.885Z,7.00
2019-01-13T08:28:55.682Z,6.60
2019-01-13T08:30:00.550Z,7.00
2019-01-13T08:31:06.085Z,6.72
2019-01-13T08:32:11.139Z,7.67
2019-01-13T08:33:16.281Z,6.97
2019-01-13T08:34:21.030Z,6.58
2019-01-13T08:35:25.806Z,7.85
2019-01-13T08:36:30.904Z,7.65
2019-01-13T08:37:36.028Z,7.50
2019-01-13T08:38:41.184Z,7.28
2019-01-13T08:39:46.744Z,9.25
2019-01-13T08:40:51.929Z,7.25
2019-01-13T08:41:57.557Z,6.80
2019-01-13T08:43:02.359Z,8.18
2019-01-13T08:44:07.384Z,7.67
2019-01-13T08:45:12.337Z,8.00
2019-01-13T08:46:17.136Z,8.95
2019-01-13T08:47:22.199Z,8.18
2019-01-13T08:48:26.671Z,7.60
2019-01-13T08:49:31.808Z,8.38
2019-01-13T08:50:36.240Z,7.30
2019-01-13T08:51:41.033Z,8.25
2019-01-13T08:52:46.178Z,7.58
2019-01-13T08:53:51.803Z,8.20
2019-01-13T08:54:56.847Z,8.70
2019-01-13T08:56:01.941Z,8.68
2019-01-13T08:57:06.713Z,8.68
2019-01-13T08:58:11.832Z,11.25
2019-01-13T08:59:17.071Z,10.70
2019-01-13T09:00:24.358Z,9.20
2019-01-13T09:01:29.105Z,11.15
2019-01-13T09:02:33.890Z,11.43
2019-01-13T09:03:39.945Z,12.05
2019-01-13T09:04:45.087Z,13.00
2019-01-13T09:05:49.833Z,12.18
2019-01-13T09:06:54.595Z,12.90
2019-01-13T09:07:59.109Z,14.15
2019-01-13T09:09:08.813Z,13.93
2019-01-13T09:10:14.905Z,15.88
2019-01-13T09:11:19.654Z,14.33
2019-01-13T09:12:24.149Z,17.50
2019-01-13T09:13:29.350Z,14.78
2019-01-13T09:14:33.844Z,13.48
2019-01-13T09:15:38.638Z,15.98
2019-01-13T09:16:43.383Z,16.65
2019-01-13T09:17:48.153Z,16.73
2019-01-13T09:18:52.987Z,15.13
2019-01-13T09:19:58.043Z,16.23
2019-01-13T09:21:02.527Z,17.65
2019-01-13T09:22:07.633Z,16.65
2019-01-13T09:23:12.434Z,17.30
2019-01-13T09:24:16.957Z,15.30
2019-01-13T09:25:22.033Z,17.65
2019-01-13T09:26:27.077Z,16.82
2019-01-13T09:27:31.840Z,16.60
2019-01-13T09:28:38.842Z,19.57
2019-01-13T09:29:43.646Z,14.47
2019-01-13T09:30:48.747Z,15.32
2019-01-13T09:31:53.506Z,17.77
2019-01-13T09:32:58.284Z,16.07
2019-01-13T09:34:03.345Z,17.10
2019-01-13T09:35:08.686Z,16.12
2019-01-13T09:36:13.422Z,16.82
2019-01-13T09:37:18.313Z,18.00
2019-01-13T09:38:23.112Z,16.17
2019-01-13T09:39:27.856Z,16.52
2019-01-13T09:40:33.400Z,18.77
2019-01-13T09:41:38.733Z,19.80
2019-01-13T09:42:43.918Z,17.40
2019-01-13T09:43:48.678Z,19.07
2019-01-13T09:44:53.750Z,18.20
2019-01-13T09:45:58.263Z,18.00
2019-01-13T09:47:03.025Z,24.50
2019-01-13T09:48:07.519Z,18.45
2019-01-13T09:49:12.610Z,21.27
2019-01-13T09:50:18.825Z,22.00
2019-01-13T09:51:23.640Z,20.62
2019-01-13T09:52:28.409Z,17.57
2019-01-13T09:53:33.193Z,19.40
2019-01-13T09:54:38.440Z,22.55
2019-01-13T09:55:43.285Z,21.65
2019-01-13T09:56:48.043Z,20.80
2019-01-13T09:57:53.150Z,22.70
2019-01-13T09:58:57.956Z,24.60
2019-01-13T10:00:02.712Z,22.32
2019-01-13T10:01:07.845Z,23.25
2019-01-13T10:02:13.801Z,25.15
2019-01-13T10:03:19.335Z,22.50
2019-01-13T10:04:24.927Z,24.82
2019-01-13T10:05:29.712Z,23.62
2019-01-13T10:06:34.502Z,25.57
2019-01-13T10:07:39.935Z,24.43
2019-01-13T10:08:45.269Z,22.93
2019-01-13T10:09:50.332Z,24.32
2019-01-13T10:10:55.121Z,24.10
2019-01-13T10:11:59.977Z,25.72
2019-01-13T10:13:04.763Z,27.65
2019-01-13T10:14:09.577Z,26.17
2019-01-13T10:15:16.679Z,27.37
2019-01-13T10:16:21.448Z,29.27
2019-01-13T10:17:26.377Z,29.72
2019-01-13T10:18:31.163Z,30.97
2019-01-13T10:19:35.939Z,25.45
2019-01-13T10:20:41.055Z,31.87
2019-01-13T10:21:46.106Z,25.50
2019-01-13T10:22:50.922Z,30.95
2019-01-13T10:23:56.389Z,29.12
2019-01-13T10:25:00.889Z,28.75
2019-01-13T10:26:06.116Z,30.48
2019-01-13T10:27:10.908Z,28.98
2019-01-13T10:28:15.667Z,33.28
2019-01-13T10:29:20.422Z,39.18
2019-01-13T10:30:27.729Z,32.30
2019-01-13T10:31:32.480Z,30.68
2019-01-13T10:32:37.458Z,27.77
2019-01-13T10:33:42.234Z,26.93
2019-01-13T10:34:46.988Z,27.35
2019-01-13T10:35:51.485Z,27.45
2019-01-13T10:36:56.258Z,30.08
2019-01-13T10:38:01.431Z,24.95
2019-01-13T10:39:08.986Z,27.73
2019-01-13T10:40:16.446Z,29.25
2019-01-13T10:41:21.209Z,32.38
2019-01-13T10:42:25.960Z,33.45
2019-01-13T10:43:31.297Z,29.60
2019-01-13T10:44:36.079Z,27.70
2019-01-13T10:45:40.860Z,29.45
2019-01-13T10:46:46.032Z,28.90
2019-01-13T10:47:51.398Z,32.30
2019-01-13T10:48:56.615Z,29.45
2019-01-13T10:50:01.385Z,29.75
2019-01-13T10:51:06.465Z,30.40
2019-01-13T10:52:11.527Z,28.87
2019-01-13T10:53:16.698Z,28.52
2019-01-13T10:54:22.356Z,28.65
2019-01-13T10:55:27.108Z,25.23
2019-01-13T10:56:32.213Z,27.60
2019-01-13T10:57:36.981Z,25.32
2019-01-13T10:58:41.491Z,25.82
2019-01-13T10:59:46.583Z,27.82
2019-01-13T11:00:51.657Z,28.07
2019-01-13T11:01:57.167Z,26.62
2019-01-13T11:03:02.680Z,27.60
2019-01-13T11:04:07.935Z,25.30
2019-01-13T11:05:13.190Z,24.47
2019-01-13T11:06:17.968Z,28.67
2019-01-13T11:07:22.454Z,30.77
2019-01-13T11:08:27.285Z,23.90
2019-01-13T11:09:32.473Z,27.30
2019-01-13T11:10:37.396Z,27.82
2019-01-13T11:11:42.176Z,26.62
2019-01-13T11:12:46.664Z,27.90
2019-01-13T11:13:51.568Z,31.97
2019-01-13T11:14:57.026Z,27.55
2019-01-13T11:16:01.849Z,25.88
2019-01-13T11:17:07.256Z,29.82
2019-01-13T11:18:12.892Z,30.12
2019-01-13T11:19:19.330Z,27.73
2019-01-13T11:20:29.427Z,26.68
2019-01-13T11:21:34.642Z,25.27
2019-01-13T11:22:40.058Z,23.67
2019-01-13T11:23:44.887Z,20.10
2019-01-13T11:24:50.432Z,23.32
2019-01-13T11:25:55.618Z,23.90
2019-01-13T11:27:00.710Z,20.65
2019-01-13T11:28:10.341Z,23.92
2019-01-13T11:29:15.103Z,22.13
2019-01-13T11:30:21.431Z,22.60
2019-01-13T11:31:26.937Z,20.23
2019-01-13T11:32:33.555Z,19.10
2019-01-13T11:33:38.516Z,21.20
2019-01-13T11:34:43.509Z,23.42
2019-01-13T11:35:48.833Z,21.37
2019-01-13T11:36:53.318Z,19.57
2019-01-13T11:37:58.131Z,21.23
2019-01-13T11:39:03.777Z,18.20
2019-01-13T11:40:16.341Z,19.57
2019-01-13T11:41:21.349Z,17.90
2019-01-13T11:42:25.831Z,21.60
2019-01-13T11:43:30.616Z,19.25
2019-01-13T11:44:35.817Z,19.23
2019-01-13T11:45:40.726Z,21.00
2019-01-13T11:46:45.505Z,20.40
2019-01-13T11:47:53.310Z,20.12
2019-01-13T11:48:58.067Z,16.48
2019-01-13T11:50:03.238Z,16.85
2019-01-13T11:51:08.378Z,15.88
2019-01-13T11:52:13.165Z,18.25
2019-01-13T11:53:18.329Z,16.70
2019-01-13T11:54:23.417Z,17.12
2019-01-13T11:55:28.264Z,16.17
2019-01-13T11:56:32.776Z,14.25
2019-01-13T11:57:37.260Z,14.33
2019-01-13T11:58:42.022Z,16.52
2019-01-13T11:59:46.816Z,17.00
2019-01-13T12:00:51.992Z,14.80
2019-01-13T12:01:57.220Z,13.58
2019-01-13T12:03:06.542Z,13.80
2019-01-13T12:04:08.566Z,18.27
2019-01-13T12:05:13.134Z,13.72
2019-01-13T12:06:17.615Z,13.18
2019-01-13T12:07:22.826Z,15.00
2019-01-13T12:08:28.122Z,13.65
2019-01-13T12:09:32.884Z,13.50
2019-01-13T12:10:37.729Z,15.83
2019-01-13T12:11:42.563Z,16.65
2019-01-13T12:12:47.084Z,13.72
2019-01-13T12:13:52.135Z,11.85
2019-01-13T12:14:57.202Z,12.10
2019-01-13T12:16:01.960Z,13.25
2019-01-13T12:17:07.104Z,11.43
2019-01-13T12:18:11.884Z,11.38
2019-01-13T12:19:16.669Z,11.93
2019-01-13T12:20:23.095Z,11.93
2019-01-13T12:21:28.186Z,12.37
2019-01-13T12:22:32.970Z,14.25
2019-01-13T12:23:37.853Z,11.18
2019-01-13T12:24:42.933Z,9.83
2019-01-13T12:25:52.536Z,10.20
2019-01-13T12:26:54.554Z,10.13
2019-01-13T12:27:59.772Z,10.08
2019-01-13T12:29:04.261Z,9.53
2019-01-13T12:30:11.479Z,9.13
2019-01-13T12:31:16.375Z,9.60
2019-01-13T12:32:21.299Z,9.58
2019-01-13T12:33:26.481Z,9.63
2019-01-13T12:34:30.968Z,8.93
2019-01-13T12:35:36.255Z,10.72
2019-01-13T12:36:41.616Z,8.70
2019-01-13T12:37:46.365Z,9.95
2019-01-13T12:38:51.165Z,8.55
2019-01-13T12:39:56.079Z,7.97
2019-01-13T12:41:01.489Z,9.10
2019-01-13T12:42:06.893Z,7.97
2019-01-13T12:43:11.696Z,8.58
2019-01-13T12:44:16.443Z,8.13
2019-01-13T12:45:22.271Z,8.85
2019-01-13T12:46:27.407Z,9.33
2019-01-13T12:47:31.881Z,8.68
2019-01-13T12:48:36.727Z,8.68
2019-01-13T12:49:41.841Z,7.55
2019-01-13T12:50:47.530Z,8.08
2019-01-13T12:51:52.796Z,8.25
2019-01-13T12:52:57.566Z,7.55
2019-01-13T12:54:03.054Z,8.80
2019-01-13T12:55:08.200Z,7.65
2019-01-13T12:56:12.967Z,9.08
2019-01-13T12:57:17.755Z,6.53
2019-01-13T12:58:22.861Z,8.03
2019-01-13T12:59:27.643Z,7.40
2019-01-13T13:00:32.461Z,6.60
2019-01-13T13:01:37.596Z,7.90
2019-01-13T13:02:42.731Z,8.80
2019-01-13T13:03:47.641Z,7.95
2019-01-13T13:04:52.774Z,7.40
2019-01-13T13:05:57.852Z,8.55
2019-01-13T13:07:02.997Z,8.63
2019-01-13T13:08:08.870Z,9.03
2019-01-13T13:09:13.809Z,14.55
2019-01-13T13:10:31.538Z,15.00
2019-01-13T13:11:36.642Z,22.10
2019-01-13T13:12:41.155Z,13.32
2019-01-13T13:13:46.037Z,11.97
2019-01-13T13:14:50.841Z,13.58
2019-01-13T13:15:55.776Z,14.45
2019-01-13T13:17:00.590Z,16.37
2019-01-13T13:18:05.557Z,43.78
2019-01-13T13:19:10.341Z,11.95
2019-01-13T13:20:15.480Z,22.93
2019-01-13T13:21:20.257Z,11.75
2019-01-13T13:22:25.074Z,29.27
2019-01-13T13:23:30.180Z,47.17
2019-01-13T13:24:34.960Z,72.32
2019-01-13T13:25:39.766Z,75.67
2019-01-13T13:26:44.574Z,30.17
2019-01-13T13:27:50.075Z,10.60
2019-01-13T13:28:54.898Z,12.88
2019-01-13T13:29:59.655Z,12.75
2019-01-13T13:31:04.479Z,29.32
2019-01-13T13:32:09.613Z,16.25
2019-01-13T13:33:15.043Z,16.95
2019-01-13T13:34:19.976Z,13.78
2019-01-13T13:35:24.450Z,10.58
2019-01-13T13:36:29.282Z,9.95
2019-01-13T13:37:34.056Z,13.62
2019-01-13T13:38:41.525Z,11.57
2019-01-13T13:39:46.285Z,38.08
2019-01-13T13:40:51.085Z,20.08
2019-01-13T13:41:55.600Z,11.53
2019-01-13T13:43:00.418Z,8.75
2019-01-13T13:44:05.172Z,12.73
2019-01-13T13:45:10.247Z,9.35
2019-01-13T13:46:15.205Z,11.20
2019-01-13T13:47:20.347Z,13.38
2019-01-13T13:48:25.128Z,8.93
2019-01-13T13:49:29.624Z,9.45
2019-01-13T13:50:34.382Z,8.33
2019-01-13T13:51:39.534Z,8.28
2019-01-13T13:52:44.017Z,8.60
2019-01-13T13:53:49.187Z,8.10
2019-01-13T13:54:54.294Z,8.20
2019-01-13T13:55:59.097Z,8.20
2019-01-13T13:57:03.596Z,7.87
2019-01-13T13:58:08.330Z,8.30
2019-01-13T13:59:12.820Z,7.60
2019-01-13T14:00:37.650Z,8.58
2019-01-13T14:01:42.181Z,8.20
2019-01-13T14:02:46.802Z,7.72
2019-01-13T14:03:51.870Z,8.65
2019-01-13T14:04:57.024Z,7.80
2019-01-13T14:06:01.849Z,10.90